sensor_id;sensor_type;location;lat;lon;timestamp;P1;durP1;ratioP1;P2;durP2;ratioP2
11305;SDS011;5708;50.660;6.778;2023-05-13T00:00:30;9.77;;;5.43;;
11305;SDS011;5708;50.660;6.778;2023-05-13T00:02:56;9.70;;;5.65;;
11305;SDS011;5708;50.660;6.778;2023-05-13T00:05:21;9.50;;;5.93;;
11305;SDS011;5708;50.660;6.778;2023-05-13T00:07:46;9.10;;;5.88;;
11305;SDS011;5708;50.660;6.778;2023-05-13T00:10:12;8.30;;;5.57;;
11305;SDS011;5708;50.660;6.778;2023-05-13T00:12:38;9.38;;;6.35;;
11305;SDS011;5708;50.660;6.778;2023-05-13T00:15:03;11.80;;;6.07;;
11305;SDS011;5708;50.660;6.778;2023-05-13T00:17:29;10.13;;;6.30;;
11305;SDS011;5708;50.660;6.778;2023-05-13T00:19:54;9.55;;;5.72;;
11305;SDS011;5708;50.660;6.778;2023-05-13T00:22:19;11.90;;;6.32;;
11305;SDS011;5708;50.660;6.778;2023-05-13T00:24:46;8.48;;;6.35;;
11305;SDS011;5708;50.660;6.778;2023-05-13T00:27:11;11.38;;;6.57;;
11305;SDS011;5708;50.660;6.778;2023-05-13T00:29:36;10.85;;;6.53;;
11305;SDS011;5708;50.660;6.778;2023-05-13T00:32:02;9.98;;;6.47;;
11305;SDS011;5708;50.660;6.778;2023-05-13T00:34:27;8.38;;;6.25;;
11305;SDS011;5708;50.660;6.778;2023-05-13T00:36:52;10.40;;;6.20;;
11305;SDS011;5708;50.660;6.778;2023-05-13T00:39:17;8.98;;;6.47;;
11305;SDS011;5708;50.660;6.778;2023-05-13T00:41:43;9.38;;;6.22;;
11305;SDS011;5708;50.660;6.778;2023-05-13T00:44:08;11.63;;;6.72;;
11305;SDS011;5708;50.660;6.778;2023-05-13T00:46:33;11.50;;;6.65;;
11305;SDS011;5708;50.660;6.778;2023-05-13T00:48:59;8.95;;;6.50;;
11305;SDS011;5708;50.660;6.778;2023-05-13T00:51:25;8.57;;;6.20;;
11305;SDS011;5708;50.660;6.778;2023-05-13T00:53:50;11.77;;;7.10;;
11305;SDS011;5708;50.660;6.778;2023-05-13T00:56:19;13.68;;;7.32;;
11305;SDS011;5708;50.660;6.778;2023-05-13T00:58:47;12.93;;;7.15;;
11305;SDS011;5708;50.660;6.778;2023-05-13T01:01:17;10.48;;;6.85;;
11305;SDS011;5708;50.660;6.778;2023-05-13T01:07:28;12.18;;;7.13;;
11305;SDS011;5708;50.660;6.778;2023-05-13T01:12:39;9.93;;;7.25;;
11305;SDS011;5708;50.660;6.778;2023-05-13T01:17:35;10.32;;;6.78;;
11305;SDS011;5708;50.660;6.778;2023-05-13T01:20:04;9.55;;;6.65;;
11305;SDS011;5708;50.660;6.778;2023-05-13T01:22:30;10.27;;;6.60;;
11305;SDS011;5708;50.660;6.778;2023-05-13T01:24:56;12.68;;;7.80;;
11305;SDS011;5708;50.660;6.778;2023-05-13T01:27:21;10.98;;;7.65;;
11305;SDS011;5708;50.660;6.778;2023-05-13T01:29:47;13.52;;;7.95;;
11305;SDS011;5708;50.660;6.778;2023-05-13T01:32:13;9.18;;;7.18;;
11305;SDS011;5708;50.660;6.778;2023-05-13T01:34:39;14.70;;;7.93;;
11305;SDS011;5708;50.660;6.778;2023-05-13T01:37:05;9.65;;;7.70;;
11305;SDS011;5708;50.660;6.778;2023-05-13T01:39:30;12.32;;;7.57;;
11305;SDS011;5708;50.660;6.778;2023-05-13T01:41:56;12.07;;;7.78;;
11305;SDS011;5708;50.660;6.778;2023-05-13T01:44:22;9.55;;;7.22;;
11305;SDS011;5708;50.660;6.778;2023-05-13T01:46:47;11.20;;;8.00;;
11305;SDS011;5708;50.660;6.778;2023-05-13T01:49:14;11.00;;;7.20;;
11305;SDS011;5708;50.660;6.778;2023-05-13T01:51:40;11.20;;;7.60;;
11305;SDS011;5708;50.660;6.778;2023-05-13T01:54:05;11.23;;;6.95;;
11305;SDS011;5708;50.660;6.778;2023-05-13T01:56:31;11.45;;;8.05;;
11305;SDS011;5708;50.660;6.778;2023-05-13T01:58:56;10.98;;;7.53;;
11305;SDS011;5708;50.660;6.778;2023-05-13T02:01:21;10.98;;;8.30;;
11305;SDS011;5708;50.660;6.778;2023-05-13T02:03:47;10.85;;;7.88;;
11305;SDS011;5708;50.660;6.778;2023-05-13T02:06:12;13.18;;;7.53;;
11305;SDS011;5708;50.660;6.778;2023-05-13T02:08:37;11.88;;;7.95;;
11305;SDS011;5708;50.660;6.778;2023-05-13T02:11:03;11.20;;;8.32;;
11305;SDS011;5708;50.660;6.778;2023-05-13T02:13:28;11.35;;;8.23;;
11305;SDS011;5708;50.660;6.778;2023-05-13T02:15:53;10.85;;;8.02;;
11305;SDS011;5708;50.660;6.778;2023-05-13T02:18:19;11.73;;;8.68;;
11305;SDS011;5708;50.660;6.778;2023-05-13T02:20:46;12.85;;;8.35;;
11305;SDS011;5708;50.660;6.778;2023-05-13T02:23:11;12.90;;;9.05;;
11305;SDS011;5708;50.660;6.778;2023-05-13T02:25:37;13.75;;;9.02;;
11305;SDS011;5708;50.660;6.778;2023-05-13T02:28:02;13.13;;;9.15;;
11305;SDS011;5708;50.660;6.778;2023-05-13T02:30:28;11.80;;;9.07;;
11305;SDS011;5708;50.660;6.778;2023-05-13T02:32:53;15.13;;;8.23;;
11305;SDS011;5708;50.660;6.778;2023-05-13T02:35:20;13.00;;;8.93;;
11305;SDS011;5708;50.660;6.778;2023-05-13T02:37:46;13.20;;;8.43;;
11305;SDS011;5708;50.660;6.778;2023-05-13T02:40:11;12.38;;;9.15;;
11305;SDS011;5708;50.660;6.778;2023-05-13T02:42:37;14.60;;;8.95;;
11305;SDS011;5708;50.660;6.778;2023-05-13T02:45:02;14.90;;;9.30;;
11305;SDS011;5708;50.660;6.778;2023-05-13T02:47:28;12.93;;;8.88;;
11305;SDS011;5708;50.660;6.778;2023-05-13T02:49:56;13.45;;;9.52;;
11305;SDS011;5708;50.660;6.778;2023-05-13T02:52:21;12.52;;;8.80;;
11305;SDS011;5708;50.660;6.778;2023-05-13T02:54:47;14.18;;;9.57;;
11305;SDS011;5708;50.660;6.778;2023-05-13T02:57:12;16.40;;;10.13;;
11305;SDS011;5708;50.660;6.778;2023-05-13T02:59:37;12.93;;;9.10;;
11305;SDS011;5708;50.660;6.778;2023-05-13T03:02:03;13.82;;;9.55;;
11305;SDS011;5708;50.660;6.778;2023-05-13T03:04:28;14.88;;;9.77;;
11305;SDS011;5708;50.660;6.778;2023-05-13T03:06:53;13.63;;;9.65;;
11305;SDS011;5708;50.660;6.778;2023-05-13T03:09:19;17.73;;;9.70;;
11305;SDS011;5708;50.660;6.778;2023-05-13T03:11:44;12.30;;;9.63;;
11305;SDS011;5708;50.660;6.778;2023-05-13T03:14:10;14.00;;;9.90;;
11305;SDS011;5708;50.660;6.778;2023-05-13T03:16:35;15.40;;;10.40;;
11305;SDS011;5708;50.660;6.778;2023-05-13T03:19:01;16.45;;;9.93;;
11305;SDS011;5708;50.660;6.778;2023-05-13T03:21:26;17.17;;;10.75;;
11305;SDS011;5708;50.660;6.778;2023-05-13T03:23:51;14.25;;;10.68;;
11305;SDS011;5708;50.660;6.778;2023-05-13T03:26:18;14.63;;;10.30;;
11305;SDS011;5708;50.660;6.778;2023-05-13T03:28:43;13.95;;;10.30;;
11305;SDS011;5708;50.660;6.778;2023-05-13T03:31:09;15.88;;;10.70;;
11305;SDS011;5708;50.660;6.778;2023-05-13T03:33:34;13.43;;;10.48;;
11305;SDS011;5708;50.660;6.778;2023-05-13T03:36:00;14.95;;;10.93;;
11305;SDS011;5708;50.660;6.778;2023-05-13T03:38:25;12.00;;;9.75;;
11305;SDS011;5708;50.660;6.778;2023-05-13T03:40:50;15.30;;;10.77;;
11305;SDS011;5708;50.660;6.778;2023-05-13T03:43:16;17.02;;;9.68;;
11305;SDS011;5708;50.660;6.778;2023-05-13T03:45:41;13.80;;;10.10;;
11305;SDS011;5708;50.660;6.778;2023-05-13T03:48:11;13.43;;;10.82;;
11305;SDS011;5708;50.660;6.778;2023-05-13T03:50:36;15.63;;;10.50;;
11305;SDS011;5708;50.660;6.778;2023-05-13T03:53:02;15.32;;;10.60;;
11305;SDS011;5708;50.660;6.778;2023-05-13T03:55:27;14.02;;;10.85;;
11305;SDS011;5708;50.660;6.778;2023-05-13T03:57:53;14.57;;;10.13;;
11305;SDS011;5708;50.660;6.778;2023-05-13T04:00:18;15.73;;;10.40;;
11305;SDS011;5708;50.660;6.778;2023-05-13T04:02:43;15.00;;;10.15;;
11305;SDS011;5708;50.660;6.778;2023-05-13T04:05:09;16.13;;;10.68;;
11305;SDS011;5708;50.660;6.778;2023-05-13T04:07:34;15.35;;;10.60;;
11305;SDS011;5708;50.660;6.778;2023-05-13T04:10:00;12.68;;;10.05;;
11305;SDS011;5708;50.660;6.778;2023-05-13T04:12:25;15.65;;;11.05;;
11305;SDS011;5708;50.660;6.778;2023-05-13T04:14:51;14.75;;;10.95;;
11305;SDS011;5708;50.660;6.778;2023-05-13T04:17:16;15.20;;;10.57;;
11305;SDS011;5708;50.660;6.778;2023-05-13T04:19:41;14.10;;;10.82;;
11305;SDS011;5708;50.660;6.778;2023-05-13T04:22:06;17.02;;;12.43;;
11305;SDS011;5708;50.660;6.778;2023-05-13T04:24:32;16.05;;;11.40;;
11305;SDS011;5708;50.660;6.778;2023-05-13T04:26:57;15.57;;;11.30;;
11305;SDS011;5708;50.660;6.778;2023-05-13T04:29:22;21.35;;;14.25;;
11305;SDS011;5708;50.660;6.778;2023-05-13T04:31:48;17.70;;;13.25;;
11305;SDS011;5708;50.660;6.778;2023-05-13T04:34:13;16.80;;;12.27;;
11305;SDS011;5708;50.660;6.778;2023-05-13T04:36:39;17.80;;;12.70;;
11305;SDS011;5708;50.660;6.778;2023-05-13T04:39:04;18.95;;;14.20;;
11305;SDS011;5708;50.660;6.778;2023-05-13T04:41:29;18.30;;;13.52;;
11305;SDS011;5708;50.660;6.778;2023-05-13T04:43:55;18.15;;;13.25;;
11305;SDS011;5708;50.660;6.778;2023-05-13T04:46:20;19.02;;;14.95;;
11305;SDS011;5708;50.660;6.778;2023-05-13T04:48:45;21.88;;;15.02;;
11305;SDS011;5708;50.660;6.778;2023-05-13T04:51:12;21.23;;;17.30;;
11305;SDS011;5708;50.660;6.778;2023-05-13T04:53:40;22.27;;;15.95;;
11305;SDS011;5708;50.660;6.778;2023-05-13T04:56:06;21.45;;;16.90;;
11305;SDS011;5708;50.660;6.778;2023-05-13T04:58:32;20.73;;;16.17;;
11305;SDS011;5708;50.660;6.778;2023-05-13T05:00:57;21.40;;;16.92;;
11305;SDS011;5708;50.660;6.778;2023-05-13T05:03:23;24.02;;;17.00;;
11305;SDS011;5708;50.660;6.778;2023-05-13T05:05:48;25.13;;;18.23;;
11305;SDS011;5708;50.660;6.778;2023-05-13T05:08:14;30.70;;;22.05;;
11305;SDS011;5708;50.660;6.778;2023-05-13T05:10:39;27.80;;;20.27;;
11305;SDS011;5708;50.660;6.778;2023-05-13T05:13:05;32.10;;;22.05;;
11305;SDS011;5708;50.660;6.778;2023-05-13T05:15:30;33.75;;;23.70;;
11305;SDS011;5708;50.660;6.778;2023-05-13T05:17:55;33.20;;;23.30;;
11305;SDS011;5708;50.660;6.778;2023-05-13T05:20:21;31.92;;;22.95;;
11305;SDS011;5708;50.660;6.778;2023-05-13T05:22:48;29.83;;;22.88;;
11305;SDS011;5708;50.660;6.778;2023-05-13T05:25:14;30.83;;;21.63;;
11305;SDS011;5708;50.660;6.778;2023-05-13T05:27:39;30.55;;;20.88;;
11305;SDS011;5708;50.660;6.778;2023-05-13T05:30:04;30.25;;;21.48;;
11305;SDS011;5708;50.660;6.778;2023-05-13T05:32:30;27.90;;;20.80;;
11305;SDS011;5708;50.660;6.778;2023-05-13T05:34:56;30.92;;;21.58;;
11305;SDS011;5708;50.660;6.778;2023-05-13T05:37:21;29.55;;;22.15;;
11305;SDS011;5708;50.660;6.778;2023-05-13T05:39:47;30.83;;;22.45;;
11305;SDS011;5708;50.660;6.778;2023-05-13T05:42:12;29.30;;;20.95;;
11305;SDS011;5708;50.660;6.778;2023-05-13T05:44:37;25.95;;;19.30;;
11305;SDS011;5708;50.660;6.778;2023-05-13T05:47:03;25.42;;;19.42;;
11305;SDS011;5708;50.660;6.778;2023-05-13T05:49:28;24.70;;;19.30;;
11305;SDS011;5708;50.660;6.778;2023-05-13T05:51:53;26.85;;;19.70;;
11305;SDS011;5708;50.660;6.778;2023-05-13T05:54:19;26.58;;;19.65;;
11305;SDS011;5708;50.660;6.778;2023-05-13T05:56:44;27.20;;;20.38;;
11305;SDS011;5708;50.660;6.778;2023-05-13T05:59:09;26.15;;;19.55;;
11305;SDS011;5708;50.660;6.778;2023-05-13T06:01:35;26.88;;;19.27;;
11305;SDS011;5708;50.660;6.778;2023-05-13T06:04:03;27.73;;;20.27;;
11305;SDS011;5708;50.660;6.778;2023-05-13T06:06:29;25.92;;;19.95;;
11305;SDS011;5708;50.660;6.778;2023-05-13T06:08:54;27.92;;;21.00;;
11305;SDS011;5708;50.660;6.778;2023-05-13T06:11:19;26.17;;;20.48;;
11305;SDS011;5708;50.660;6.778;2023-05-13T06:13:45;30.90;;;21.75;;
11305;SDS011;5708;50.660;6.778;2023-05-13T06:16:10;27.58;;;21.08;;
11305;SDS011;5708;50.660;6.778;2023-05-13T06:18:36;28.42;;;21.27;;
11305;SDS011;5708;50.660;6.778;2023-05-13T06:21:01;28.30;;;20.23;;
11305;SDS011;5708;50.660;6.778;2023-05-13T06:23:27;28.33;;;21.25;;
11305;SDS011;5708;50.660;6.778;2023-05-13T06:25:52;27.70;;;20.60;;
11305;SDS011;5708;50.660;6.778;2023-05-13T06:28:18;28.52;;;20.27;;
11305;SDS011;5708;50.660;6.778;2023-05-13T06:30:44;27.50;;;20.83;;
11305;SDS011;5708;50.660;6.778;2023-05-13T06:33:09;27.30;;;21.30;;
11305;SDS011;5708;50.660;6.778;2023-05-13T06:35:36;28.63;;;19.75;;
11305;SDS011;5708;50.660;6.778;2023-05-13T06:38:01;31.80;;;20.75;;
11305;SDS011;5708;50.660;6.778;2023-05-13T06:40:27;29.75;;;20.02;;
11305;SDS011;5708;50.660;6.778;2023-05-13T06:42:52;27.95;;;19.77;;
11305;SDS011;5708;50.660;6.778;2023-05-13T06:45:17;33.40;;;17.98;;
11305;SDS011;5708;50.660;6.778;2023-05-13T06:47:47;29.48;;;20.58;;
11305;SDS011;5708;50.660;6.778;2023-05-13T06:50:14;28.92;;;19.55;;
11305;SDS011;5708;50.660;6.778;2023-05-13T06:52:39;27.02;;;19.70;;
11305;SDS011;5708;50.660;6.778;2023-05-13T06:55:04;25.15;;;19.48;;
11305;SDS011;5708;50.660;6.778;2023-05-13T06:57:30;26.40;;;20.20;;
11305;SDS011;5708;50.660;6.778;2023-05-13T06:59:55;32.60;;;20.13;;
11305;SDS011;5708;50.660;6.778;2023-05-13T07:02:21;26.40;;;19.23;;
11305;SDS011;5708;50.660;6.778;2023-05-13T07:04:46;25.02;;;19.35;;
11305;SDS011;5708;50.660;6.778;2023-05-13T07:07:11;25.42;;;17.90;;
11305;SDS011;5708;50.660;6.778;2023-05-13T07:09:36;25.63;;;18.02;;
11305;SDS011;5708;50.660;6.778;2023-05-13T07:12:02;25.27;;;17.95;;
11305;SDS011;5708;50.660;6.778;2023-05-13T07:14:27;28.65;;;19.30;;
11305;SDS011;5708;50.660;6.778;2023-05-13T07:16:53;29.92;;;20.05;;
11305;SDS011;5708;50.660;6.778;2023-05-13T07:19:18;25.35;;;19.55;;
11305;SDS011;5708;50.660;6.778;2023-05-13T07:21:43;24.70;;;18.63;;
11305;SDS011;5708;50.660;6.778;2023-05-13T07:24:08;22.92;;;17.60;;
11305;SDS011;5708;50.660;6.778;2023-05-13T07:26:34;27.95;;;17.48;;
11305;SDS011;5708;50.660;6.778;2023-05-13T07:29:00;22.15;;;17.98;;
11305;SDS011;5708;50.660;6.778;2023-05-13T07:31:25;22.13;;;16.65;;
11305;SDS011;5708;50.660;6.778;2023-05-13T07:33:51;23.05;;;16.23;;
11305;SDS011;5708;50.660;6.778;2023-05-13T07:36:16;18.90;;;14.20;;
11305;SDS011;5708;50.660;6.778;2023-05-13T07:38:41;20.55;;;14.27;;
11305;SDS011;5708;50.660;6.778;2023-05-13T07:41:08;19.02;;;15.63;;
11305;SDS011;5708;50.660;6.778;2023-05-13T07:43:33;19.95;;;14.98;;
11305;SDS011;5708;50.660;6.778;2023-05-13T07:45:59;22.05;;;16.20;;
11305;SDS011;5708;50.660;6.778;2023-05-13T07:48:24;22.90;;;17.08;;
11305;SDS011;5708;50.660;6.778;2023-05-13T07:50:52;23.60;;;15.13;;
11305;SDS011;5708;50.660;6.778;2023-05-13T07:53:17;23.77;;;16.25;;
11305;SDS011;5708;50.660;6.778;2023-05-13T07:55:43;20.98;;;15.57;;
11305;SDS011;5708;50.660;6.778;2023-05-13T07:58:08;22.63;;;16.13;;
11305;SDS011;5708;50.660;6.778;2023-05-13T08:00:33;19.52;;;14.60;;
11305;SDS011;5708;50.660;6.778;2023-05-13T08:02:59;21.73;;;15.50;;
11305;SDS011;5708;50.660;6.778;2023-05-13T08:05:24;24.75;;;15.38;;
11305;SDS011;5708;50.660;6.778;2023-05-13T08:07:49;24.63;;;16.17;;
11305;SDS011;5708;50.660;6.778;2023-05-13T08:10:15;24.30;;;15.70;;
11305;SDS011;5708;50.660;6.778;2023-05-13T08:12:40;17.92;;;14.40;;
11305;SDS011;5708;50.660;6.778;2023-05-13T08:15:06;24.77;;;13.65;;
11305;SDS011;5708;50.660;6.778;2023-05-13T08:17:32;23.65;;;15.43;;
11305;SDS011;5708;50.660;6.778;2023-05-13T08:19:59;23.30;;;14.80;;
11305;SDS011;5708;50.660;6.778;2023-05-13T08:22:25;23.73;;;15.18;;
11305;SDS011;5708;50.660;6.778;2023-05-13T08:24:50;21.70;;;14.55;;
11305;SDS011;5708;50.660;6.778;2023-05-13T08:27:15;19.83;;;14.88;;
11305;SDS011;5708;50.660;6.778;2023-05-13T08:29:41;25.02;;;15.63;;
11305;SDS011;5708;50.660;6.778;2023-05-13T08:32:06;24.80;;;14.60;;
11305;SDS011;5708;50.660;6.778;2023-05-13T08:34:31;18.30;;;13.80;;
11305;SDS011;5708;50.660;6.778;2023-05-13T08:36:56;16.85;;;13.30;;
11305;SDS011;5708;50.660;6.778;2023-05-13T08:39:22;19.33;;;13.63;;
11305;SDS011;5708;50.660;6.778;2023-05-13T08:41:48;17.60;;;13.52;;
11305;SDS011;5708;50.660;6.778;2023-05-13T08:44:13;20.83;;;12.85;;
11305;SDS011;5708;50.660;6.778;2023-05-13T08:46:40;17.63;;;12.40;;
11305;SDS011;5708;50.660;6.778;2023-05-13T08:49:09;18.58;;;11.32;;
11305;SDS011;5708;50.660;6.778;2023-05-13T08:51:34;16.38;;;11.05;;
11305;SDS011;5708;50.660;6.778;2023-05-13T08:54:00;12.77;;;9.05;;
11305;SDS011;5708;50.660;6.778;2023-05-13T08:56:25;11.48;;;8.15;;
11305;SDS011;5708;50.660;6.778;2023-05-13T08:58:53;13.63;;;7.65;;
11305;SDS011;5708;50.660;6.778;2023-05-13T09:01:18;12.05;;;8.40;;
11305;SDS011;5708;50.660;6.778;2023-05-13T09:03:49;12.30;;;7.80;;
11305;SDS011;5708;50.660;6.778;2023-05-13T09:06:17;14.40;;;9.43;;
11305;SDS011;5708;50.660;6.778;2023-05-13T09:08:43;15.07;;;9.68;;
11305;SDS011;5708;50.660;6.778;2023-05-13T09:11:08;14.75;;;9.60;;
11305;SDS011;5708;50.660;6.778;2023-05-13T09:13:33;12.73;;;9.07;;
11305;SDS011;5708;50.660;6.778;2023-05-13T09:15:58;17.08;;;10.27;;
11305;SDS011;5708;50.660;6.778;2023-05-13T09:18:29;15.05;;;9.30;;
11305;SDS011;5708;50.660;6.778;2023-05-13T09:20:55;18.58;;;8.63;;
11305;SDS011;5708;50.660;6.778;2023-05-13T09:23:21;13.70;;;8.65;;
11305;SDS011;5708;50.660;6.778;2023-05-13T09:25:47;15.00;;;8.98;;
11305;SDS011;5708;50.660;6.778;2023-05-13T09:28:13;13.60;;;9.38;;
11305;SDS011;5708;50.660;6.778;2023-05-13T09:30:39;14.95;;;9.35;;
11305;SDS011;5708;50.660;6.778;2023-05-13T09:33:13;13.23;;;9.00;;
11305;SDS011;5708;50.660;6.778;2023-05-13T09:35:39;12.32;;;8.02;;
11305;SDS011;5708;50.660;6.778;2023-05-13T09:38:12;11.82;;;8.48;;
11305;SDS011;5708;50.660;6.778;2023-05-13T09:40:39;12.07;;;7.55;;
11305;SDS011;5708;50.660;6.778;2023-05-13T09:43:05;10.77;;;7.60;;
11305;SDS011;5708;50.660;6.778;2023-05-13T09:45:32;13.07;;;6.75;;
11305;SDS011;5708;50.660;6.778;2023-05-13T09:47:57;16.17;;;8.10;;
11305;SDS011;5708;50.660;6.778;2023-05-13T09:50:22;11.23;;;7.35;;
11305;SDS011;5708;50.660;6.778;2023-05-13T09:52:48;13.10;;;6.90;;
11305;SDS011;5708;50.660;6.778;2023-05-13T09:55:13;9.43;;;6.22;;
11305;SDS011;5708;50.660;6.778;2023-05-13T09:57:39;11.80;;;6.45;;
11305;SDS011;5708;50.660;6.778;2023-05-13T10:00:05;9.30;;;6.40;;
11305;SDS011;5708;50.660;6.778;2023-05-13T10:02:31;13.75;;;7.55;;
11305;SDS011;5708;50.660;6.778;2023-05-13T10:04:56;9.93;;;6.43;;
11305;SDS011;5708;50.660;6.778;2023-05-13T10:07:22;13.57;;;6.28;;
11305;SDS011;5708;50.660;6.778;2023-05-13T10:09:51;14.93;;;6.70;;
11305;SDS011;5708;50.660;6.778;2023-05-13T10:12:20;10.80;;;5.60;;
11305;SDS011;5708;50.660;6.778;2023-05-13T10:14:48;13.15;;;6.25;;
11305;SDS011;5708;50.660;6.778;2023-05-13T10:17:15;8.45;;;5.80;;
11305;SDS011;5708;50.660;6.778;2023-05-13T10:19:42;10.10;;;6.53;;
11305;SDS011;5708;50.660;6.778;2023-05-13T10:22:07;10.82;;;5.70;;
11305;SDS011;5708;50.660;6.778;2023-05-13T10:24:33;11.38;;;5.85;;
11305;SDS011;5708;50.660;6.778;2023-05-13T10:26:59;8.48;;;5.85;;
11305;SDS011;5708;50.660;6.778;2023-05-13T10:29:25;8.98;;;5.63;;
11305;SDS011;5708;50.660;6.778;2023-05-13T10:31:53;9.02;;;6.03;;
11305;SDS011;5708;50.660;6.778;2023-05-13T10:34:19;13.02;;;6.13;;
11305;SDS011;5708;50.660;6.778;2023-05-13T10:36:55;12.10;;;6.90;;
11305;SDS011;5708;50.660;6.778;2023-05-13T10:44:34;10.40;;;4.90;;
11305;SDS011;5708;50.660;6.778;2023-05-13T10:47:00;10.05;;;5.90;;
11305;SDS011;5708;50.660;6.778;2023-05-13T10:49:31;10.05;;;5.30;;
11305;SDS011;5708;50.660;6.778;2023-05-13T10:52:07;10.48;;;5.25;;
11305;SDS011;5708;50.660;6.778;2023-05-13T10:54:37;12.40;;;6.43;;
11305;SDS011;5708;50.660;6.778;2023-05-13T10:57:04;12.55;;;9.48;;
11305;SDS011;5708;50.660;6.778;2023-05-13T10:59:30;12.32;;;9.30;;
11305;SDS011;5708;50.660;6.778;2023-05-13T11:01:55;14.15;;;9.65;;
11305;SDS011;5708;50.660;6.778;2023-05-13T11:04:21;15.88;;;10.30;;
11305;SDS011;5708;50.660;6.778;2023-05-13T11:06:47;12.80;;;8.57;;
11305;SDS011;5708;50.660;6.778;2023-05-13T11:11:47;14.95;;;9.40;;
11305;SDS011;5708;50.660;6.778;2023-05-13T11:14:23;18.58;;;10.23;;
11305;SDS011;5708;50.660;6.778;2023-05-13T11:16:56;13.68;;;9.02;;
11305;SDS011;5708;50.660;6.778;2023-05-13T11:19:35;14.88;;;9.55;;
11305;SDS011;5708;50.660;6.778;2023-05-13T11:22:09;11.40;;;8.13;;
11305;SDS011;5708;50.660;6.778;2023-05-13T11:24:36;14.80;;;8.35;;
11305;SDS011;5708;50.660;6.778;2023-05-13T11:30:06;12.77;;;9.63;;
11305;SDS011;5708;50.660;6.778;2023-05-13T11:32:57;14.93;;;9.88;;
11305;SDS011;5708;50.660;6.778;2023-05-13T11:35:32;14.55;;;9.73;;
11305;SDS011;5708;50.660;6.778;2023-05-13T11:38:01;14.68;;;10.13;;
11305;SDS011;5708;50.660;6.778;2023-05-13T11:40:28;12.43;;;9.30;;
11305;SDS011;5708;50.660;6.778;2023-05-13T11:42:54;10.88;;;6.25;;
11305;SDS011;5708;50.660;6.778;2023-05-13T11:45:20;6.15;;;2.97;;
11305;SDS011;5708;50.660;6.778;2023-05-13T11:47:47;4.45;;;2.25;;
11305;SDS011;5708;50.660;6.778;2023-05-13T11:50:17;3.85;;;2.20;;
11305;SDS011;5708;50.660;6.778;2023-05-13T11:52:43;4.57;;;2.40;;
11305;SDS011;5708;50.660;6.778;2023-05-13T11:55:09;5.78;;;2.28;;
11305;SDS011;5708;50.660;6.778;2023-05-13T11:57:34;6.47;;;2.65;;
11305;SDS011;5708;50.660;6.778;2023-05-13T12:02:37;5.85;;;2.72;;
11305;SDS011;5708;50.660;6.778;2023-05-13T12:05:08;5.05;;;2.50;;
11305;SDS011;5708;50.660;6.778;2023-05-13T12:07:34;6.50;;;3.10;;
11305;SDS011;5708;50.660;6.778;2023-05-13T12:10:00;7.70;;;3.10;;
11305;SDS011;5708;50.660;6.778;2023-05-13T12:12:27;5.47;;;3.10;;
11305;SDS011;5708;50.660;6.778;2023-05-13T12:14:54;5.80;;;2.83;;
11305;SDS011;5708;50.660;6.778;2023-05-13T12:17:20;5.10;;;2.72;;
11305;SDS011;5708;50.660;6.778;2023-05-13T12:22:30;6.75;;;3.38;;
11305;SDS011;5708;50.660;6.778;2023-05-13T12:24:56;7.28;;;3.30;;
11305;SDS011;5708;50.660;6.778;2023-05-13T12:27:25;6.75;;;3.60;;
11305;SDS011;5708;50.660;6.778;2023-05-13T12:29:53;7.63;;;4.13;;
11305;SDS011;5708;50.660;6.778;2023-05-13T12:32:19;8.50;;;4.50;;
11305;SDS011;5708;50.660;6.778;2023-05-13T12:34:47;7.43;;;4.40;;
11305;SDS011;5708;50.660;6.778;2023-05-13T12:37:13;7.05;;;4.18;;
11305;SDS011;5708;50.660;6.778;2023-05-13T12:39:39;7.63;;;4.97;;
11305;SDS011;5708;50.660;6.778;2023-05-13T12:42:05;9.52;;;4.93;;
11305;SDS011;5708;50.660;6.778;2023-05-13T12:44:31;11.43;;;5.32;;
11305;SDS011;5708;50.660;6.778;2023-05-13T12:46:57;7.13;;;5.30;;
11305;SDS011;5708;50.660;6.778;2023-05-13T12:49:23;8.65;;;5.30;;
11305;SDS011;5708;50.660;6.778;2023-05-13T12:51:49;9.32;;;5.80;;
11305;SDS011;5708;50.660;6.778;2023-05-13T12:54:15;7.40;;;4.65;;
11305;SDS011;5708;50.660;6.778;2023-05-13T12:56:41;7.65;;;4.38;;
11305;SDS011;5708;50.660;6.778;2023-05-13T12:59:06;6.85;;;4.05;;
11305;SDS011;5708;50.660;6.778;2023-05-13T13:01:32;7.25;;;3.80;;
11305;SDS011;5708;50.660;6.778;2023-05-13T13:03:58;7.95;;;4.50;;
11305;SDS011;5708;50.660;6.778;2023-05-13T13:06:23;10.52;;;6.03;;
11305;SDS011;5708;50.660;6.778;2023-05-13T13:08:48;8.50;;;5.18;;
11305;SDS011;5708;50.660;6.778;2023-05-13T13:11:14;10.13;;;5.72;;
11305;SDS011;5708;50.660;6.778;2023-05-13T13:13:42;7.40;;;4.28;;
11305;SDS011;5708;50.660;6.778;2023-05-13T13:16:07;6.75;;;4.82;;
11305;SDS011;5708;50.660;6.778;2023-05-13T13:18:33;9.27;;;3.60;;
11305;SDS011;5708;50.660;6.778;2023-05-13T13:20:59;5.07;;;3.47;;
11305;SDS011;5708;50.660;6.778;2023-05-13T13:23:24;8.00;;;3.50;;
11305;SDS011;5708;50.660;6.778;2023-05-13T13:25:49;5.63;;;2.72;;
11305;SDS011;5708;50.660;6.778;2023-05-13T13:28:15;5.00;;;3.17;;
11305;SDS011;5708;50.660;6.778;2023-05-13T13:30:40;4.40;;;3.03;;
11305;SDS011;5708;50.660;6.778;2023-05-13T13:33:10;5.75;;;3.10;;
11305;SDS011;5708;50.660;6.778;2023-05-13T13:35:39;4.63;;;3.00;;
11305;SDS011;5708;50.660;6.778;2023-05-13T13:38:04;5.07;;;2.97;;
11305;SDS011;5708;50.660;6.778;2023-05-13T13:40:32;6.22;;;3.25;;
11305;SDS011;5708;50.660;6.778;2023-05-13T13:42:57;7.53;;;3.35;;
11305;SDS011;5708;50.660;6.778;2023-05-13T13:45:22;4.10;;;2.67;;
11305;SDS011;5708;50.660;6.778;2023-05-13T13:47:48;5.13;;;2.38;;
11305;SDS011;5708;50.660;6.778;2023-05-13T13:50:14;4.82;;;2.72;;
11305;SDS011;5708;50.660;6.778;2023-05-13T13:52:39;5.57;;;2.60;;
11305;SDS011;5708;50.660;6.778;2023-05-13T13:55:04;4.95;;;2.83;;
11305;SDS011;5708;50.660;6.778;2023-05-13T13:57:30;4.13;;;2.50;;
11305;SDS011;5708;50.660;6.778;2023-05-13T13:59:56;5.32;;;2.70;;
11305;SDS011;5708;50.660;6.778;2023-05-13T14:02:21;7.95;;;2.97;;
11305;SDS011;5708;50.660;6.778;2023-05-13T14:04:46;4.60;;;2.78;;
11305;SDS011;5708;50.660;6.778;2023-05-13T14:07:12;6.50;;;3.10;;
11305;SDS011;5708;50.660;6.778;2023-05-13T14:09:37;5.88;;;3.05;;
11305;SDS011;5708;50.660;6.778;2023-05-13T14:12:02;5.20;;;3.03;;
11305;SDS011;5708;50.660;6.778;2023-05-13T14:14:28;5.25;;;3.40;;
11305;SDS011;5708;50.660;6.778;2023-05-13T14:16:53;6.93;;;3.30;;
11305;SDS011;5708;50.660;6.778;2023-05-13T14:19:18;7.05;;;3.20;;
11305;SDS011;5708;50.660;6.778;2023-05-13T14:21:44;4.60;;;2.70;;
11305;SDS011;5708;50.660;6.778;2023-05-13T14:24:10;8.00;;;2.85;;
11305;SDS011;5708;50.660;6.778;2023-05-13T14:26:36;4.57;;;2.80;;
11305;SDS011;5708;50.660;6.778;2023-05-13T14:29:01;7.60;;;3.00;;
11305;SDS011;5708;50.660;6.778;2023-05-13T14:31:26;4.38;;;2.55;;
11305;SDS011;5708;50.660;6.778;2023-05-13T14:33:52;4.70;;;2.65;;
11305;SDS011;5708;50.660;6.778;2023-05-13T14:36:17;4.43;;;2.95;;
11305;SDS011;5708;50.660;6.778;2023-05-13T14:38:44;5.43;;;2.47;;
11305;SDS011;5708;50.660;6.778;2023-05-13T14:41:10;4.88;;;2.63;;
11305;SDS011;5708;50.660;6.778;2023-05-13T14:43:36;4.45;;;2.97;;
11305;SDS011;5708;50.660;6.778;2023-05-13T14:46:01;4.95;;;2.40;;
11305;SDS011;5708;50.660;6.778;2023-05-13T14:48:27;6.25;;;2.40;;
11305;SDS011;5708;50.660;6.778;2023-05-13T14:50:52;4.32;;;2.15;;
11305;SDS011;5708;50.660;6.778;2023-05-13T14:53:18;3.45;;;1.80;;
11305;SDS011;5708;50.660;6.778;2023-05-13T14:55:43;2.97;;;1.98;;
11305;SDS011;5708;50.660;6.778;2023-05-13T14:58:09;2.80;;;1.80;;
11305;SDS011;5708;50.660;6.778;2023-05-13T15:00:35;3.50;;;2.15;;
11305;SDS011;5708;50.660;6.778;2023-05-13T15:03:05;5.30;;;2.30;;